Time;durP1;ratioP1;P1;durP2;ratioP2;P2;SDS_P1;SDS_P2;PMS_P1;PMS_P2;Temp;Humidity;BMP_temperature;BMP_pressure;BME280_temperature;BME280_humidity;BME280_pressure;Samples;Min_cycle;Max_cycle;Signal;HPM_P1;HPM_P2
2021/03/15 00:00:36;;;;;;;5.57;2.30;;;;;;;18.58;51.22;100684.63;2090740;28;20029;-70
2021/03/15 00:01:36;;;;;;;4.07;2.80;;;;;;;18.57;51.32;100685.59;2095399;28;20046;-70
2021/03/15 00:02:38;;;;;;;4.03;2.87;;;;;;;18.57;51.20;100696.50;2095582;28;20067;-70
2021/03/15 00:03:40;;;;;;;3.60;2.65;;;;;;;18.57;51.02;100685.59;2094461;28;20563;-69
2021/03/15 00:04:40;;;;;;;7.28;2.95;;;;;;;18.56;51.33;100689.34;2099745;28;20418;-69
2021/03/15 00:05:41;;;;;;;4.23;3.03;;;;;;;18.56;51.19;100689.34;2094937;28;20051;-70
2021/03/15 00:06:41;;;;;;;3.87;2.87;;;;;;;18.56;51.25;100686.59;2095446;28;20502;-69
2021/03/15 00:07:42;;;;;;;3.50;2.87;;;;;;;18.56;51.26;100694.78;2096271;28;20028;-69
2021/03/15 00:08:42;;;;;;;4.03;2.67;;;;;;;18.55;51.18;100687.63;2085493;28;20020;-70
2021/03/15 00:09:43;;;;;;;5.00;3.07;;;;;;;18.55;51.30;100687.63;2086581;28;20020;-71
2021/03/15 00:10:43;;;;;;;3.27;2.50;;;;;;;18.54;51.29;100685.88;2095333;28;20039;-70
2021/03/15 00:11:44;;;;;;;4.37;2.67;;;;;;;18.54;51.15;100685.88;2091165;28;20033;-70
2021/03/15 00:12:45;;;;;;;3.53;2.37;;;;;;;18.53;51.37;100687.72;2096015;28;20029;-69
2021/03/15 00:13:45;;;;;;;4.60;2.60;;;;;;;18.54;51.17;100689.44;2089510;28;20088;-69
2021/03/15 00:14:46;;;;;;;4.10;2.57;;;;;;;18.55;51.21;100687.63;2093423;28;20043;-69
2021/03/15 00:15:48;;;;;;;2.83;1.87;;;;;;;18.54;51.24;100685.88;2093699;28;20032;-69
2021/03/15 00:16:49;;;;;;;5.03;2.25;;;;;;;18.53;51.31;100689.59;2095232;28;20028;-70
2021/03/15 00:17:50;;;;;;;3.60;2.33;;;;;;;18.53;51.05;100689.59;2096005;28;20546;-70
2021/03/15 00:18:50;;;;;;;4.32;2.63;;;;;;;18.53;51.14;100689.59;2090199;28;20383;-69
2021/03/15 00:19:51;;;;;;;4.27;2.43;;;;;;;18.53;51.22;100689.59;2094837;28;20086;-69
2021/03/15 00:20:52;;;;;;;4.23;2.50;;;;;;;18.52;51.22;100696.94;2095050;28;20024;-70
2021/03/15 00:21:52;;;;;;;3.67;2.47;;;;;;;18.53;51.21;100695.06;2095633;28;20513;-70
2021/03/15 00:22:53;;;;;;;3.63;2.10;;;;;;;18.53;51.08;100695.06;2091517;28;20040;-69
2021/03/15 00:23:53;;;;;;;4.43;2.70;;;;;;;18.52;51.28;100688.75;2093502;28;20565;-70
2021/03/15 00:24:54;;;;;;;6.00;3.23;;;;;;;18.53;51.25;100695.06;2089957;28;20057;-70
2021/03/15 00:25:54;;;;;;;4.00;2.47;;;;;;;18.52;51.27;100696.03;2095153;28;20463;-70
2021/03/15 00:26:54;;;;;;;3.47;2.50;;;;;;;18.52;51.39;100693.31;2095618;28;20040;-69
2021/03/15 00:27:55;;;;;;;4.10;2.60;;;;;;;18.51;51.47;100695.19;2095394;28;20448;-70
2021/03/15 00:28:55;;;;;;;4.17;2.67;;;;;;;18.51;51.34;100692.47;2095397;28;20034;-70
2021/03/15 00:29:56;;;;;;;5.77;2.43;;;;;;;18.52;51.48;100687.84;2089118;28;20490;-70
2021/03/15 00:30:56;;;;;;;10.30;2.73;;;;;;;18.54;51.51;100691.31;2090284;28;20103;-69
2021/03/15 00:31:57;;;;;;;4.20;2.50;;;;;;;18.52;51.42;100690.59;2092575;28;20021;-70
2021/03/15 00:32:57;;;;;;;4.77;2.70;;;;;;;18.53;51.23;100692.34;2092618;28;20024;-69
2021/03/15 00:33:57;;;;;;;3.57;2.30;;;;;;;18.52;51.46;100688.75;2085976;28;20091;-69
2021/03/15 00:34:58;;;;;;;4.47;2.60;;;;;;;18.53;51.33;100689.59;2088990;28;20035;-69
2021/03/15 00:35:58;;;;;;;3.30;2.47;;;;;;;18.53;51.28;100692.34;2095138;28;20838;-70
2021/03/15 00:37:00;;;;;;;3.63;2.70;;;;;;;18.54;51.35;100685.88;2086266;28;20080;-70
2021/03/15 00:38:00;;;;;;;4.18;2.17;;;;;;;18.53;51.33;100692.34;2084356;28;20028;-70
2021/03/15 00:39:01;;;;;;;4.83;2.40;;;;;;;18.52;51.14;100687.84;2094533;28;20119;-70
2021/03/15 00:40:07;;;;;;;3.10;2.23;;;;;;;18.52;51.25;100687.84;2095274;28;20132;-70
2021/03/15 00:41:08;;;;;;;4.07;2.72;;;;;;;18.53;50.95;100686.88;2087519;28;20480;-70
2021/03/15 00:42:08;;;;;;;5.07;3.17;;;;;;;18.53;51.21;100684.16;2081259;28;20724;-70
2021/03/15 00:43:09;;;;;;;3.57;2.60;;;;;;;18.54;51.08;100691.31;2088053;28;20098;-70
2021/03/15 00:44:10;;;;;;;3.53;2.40;;;;;;;18.53;51.11;100684.16;2095309;28;20043;-69
2021/03/15 00:45:12;;;;;;;3.10;2.20;;;;;;;18.53;50.97;100686.88;2093957;28;20024;-70
2021/03/15 00:46:12;;;;;;;;;;;;;;;18.52;51.12;100687.84;2087847;28;20032;-70
2021/03/15 00:47:12;;;;;;;5.65;2.55;;;;;;;18.53;50.99;100692.34;2090902;28;19919;-70
2021/03/15 00:48:13;;;;;;;4.57;2.83;;;;;;;18.52;51.24;100693.31;2094953;28;20048;-70
2021/03/15 00:49:13;;;;;;;6.90;3.03;;;;;;;18.52;51.19;100688.75;2088305;28;20024;-70
2021/03/15 00:50:40;;;;;;;5.17;2.50;;;;;;;18.52;51.15;100687.84;2087540;28;20029;-69
2021/03/15 00:51:40;;;;;;;4.15;2.45;;;;;;;18.51;51.05;100692.47;2095712;28;20117;-70
2021/03/15 00:52:41;;;;;;;4.03;2.53;;;;;;;18.52;51.13;100691.47;2095030;28;20025;-70
2021/03/15 00:53:41;;;;;;;4.00;3.00;;;;;;;18.51;50.84;100694.31;2094897;28;20054;-69
2021/03/15 00:54:42;;;;;;;4.50;2.70;;;;;;;18.51;51.13;100686.13;2094129;28;20036;-70
2021/03/15 00:55:42;;;;;;;3.17;2.50;;;;;;;18.50;51.00;100689.88;2095570;28;20044;-69
2021/03/15 00:56:42;;;;;;;4.83;2.47;;;;;;;18.51;51.13;100692.47;2095137;28;20031;-69
2021/03/15 00:57:45;;;;;;;4.00;2.60;;;;;;;18.50;51.06;100692.59;2094317;28;20035;-69
2021/03/15 00:58:45;;;;;;;3.22;2.45;;;;;;;18.50;51.23;100684.41;2095478;28;20034;-70
2021/03/15 00:59:46;;;;;;;4.37;2.77;;;;;;;18.50;50.91;100695.34;2094463;28;20095;-70
2021/03/15 01:00:47;;;;;;;5.07;2.53;;;;;;;18.49;50.97;100683.53;2092030;28;20608;-70
2021/03/15 01:01:48;;;;;;;4.18;2.65;;;;;;;18.49;50.99;100685.41;2093955;28;20149;-70
2021/03/15 01:02:48;;;;;;;3.57;2.10;;;;;;;18.50;50.91;100689.88;2093802;28;20055;-69
2021/03/15 01:03:49;;;;;;;2.93;2.30;;;;;;;18.48;51.16;100691.88;2092460;28;20020;-69
2021/03/15 01:04:49;;;;;;;3.97;2.80;;;;;;;18.49;51.11;100685.41;2090274;28;20072;-69
2021/03/15 01:05:51;;;;;;;3.07;2.20;;;;;;;18.48;50.84;100691.88;2089196;28;20029;-69
2021/03/15 01:06:52;;;;;;;3.13;2.30;;;;;;;18.47;51.00;100690.13;2095053;28;20033;-69
2021/03/15 01:07:52;;;;;;;5.73;2.33;;;;;;;18.48;51.08;100691.88;2093792;28;20573;-69
2021/03/15 01:08:53;;;;;;;4.63;2.67;;;;;;;18.47;51.09;100685.56;2095416;28;20550;-70
2021/03/15 01:09:53;;;;;;;3.07;2.13;;;;;;;18.47;50.95;100691.00;2090016;28;20033;-69
2021/03/15 01:10:54;;;;;;;3.33;2.30;;;;;;;18.46;51.10;100689.25;2093869;28;20036;-70
2021/03/15 01:11:54;;;;;;;3.10;2.17;;;;;;;18.46;51.03;100691.13;2094906;28;20123;-69
2021/03/15 01:12:55;;;;;;;4.23;2.30;;;;;;;18.46;51.02;100693.84;2095073;28;20035;-69
2021/03/15 01:13:55;;;;;;;3.73;2.37;;;;;;;18.46;51.05;100686.53;2094562;28;20024;-70
2021/03/15 01:14:56;;;;;;;4.10;2.30;;;;;;;18.45;51.06;100683.91;2092272;28;20122;-70
2021/03/15 01:15:57;;;;;;;2.53;1.90;;;;;;;18.45;51.10;100686.66;2095548;28;20032;-69
2021/03/15 01:16:57;;;;;;;4.40;2.17;;;;;;;18.45;51.04;100689.38;2090004;28;20429;-70
2021/03/15 01:17:58;;;;;;;3.63;2.70;;;;;;;18.43;51.19;100690.38;2095086;28;20071;-70
2021/03/15 01:18:59;;;;;;;3.70;2.23;;;;;;;18.43;51.01;100684.94;2095131;28;20098;-70
2021/03/15 01:19:59;;;;;;;3.80;2.20;;;;;;;18.44;51.13;100685.78;2091717;28;20021;-70
2021/03/15 01:20:59;;;;;;;3.67;2.43;;;;;;;18.45;51.20;100686.66;2095236;28;20071;-70
2021/03/15 01:22:00;;;;;;;3.43;2.30;;;;;;;18.43;51.08;100679.47;2088721;28;20052;-70
2021/03/15 01:23:01;;;;;;;2.80;2.23;;;;;;;18.43;51.31;100678.59;2089980;28;20371;-70
2021/03/15 01:24:02;;;;;;;3.40;2.15;;;;;;;18.43;51.33;100679.47;2087202;28;20033;-70
2021/03/15 01:25:04;;;;;;;3.70;2.47;;;;;;;18.42;51.19;100680.47;2091152;28;20506;-70
2021/03/15 01:26:05;;;;;;;3.42;2.78;;;;;;;18.43;51.17;100679.47;2088265;28;20135;-70
2021/03/15 01:27:06;;;;;;;4.20;2.45;;;;;;;18.43;51.08;100679.47;2090299;28;20025;-70
2021/03/15 01:28:08;;;;;;;2.53;2.00;;;;;;;18.42;51.20;100677.75;2085995;28;20663;-70
2021/03/15 01:29:09;;;;;;;4.28;2.83;;;;;;;18.42;51.21;100676.84;2087194;28;20040;-70
2021/03/15 01:30:16;;;;;;;3.38;2.63;;;;;;;18.42;51.16;100680.47;2085855;28;20098;-68
2021/03/15 01:31:16;;;;;;;5.00;2.53;;;;;;;18.42;51.22;100674.13;2087549;28;20036;-70
2021/03/15 01:32:17;;;;;;;4.07;2.87;;;;;;;18.42;51.21;100683.22;2088823;28;20029;-70
2021/03/15 01:33:17;;;;;;;2.90;2.07;;;;;;;18.42;51.19;100672.28;2092054;28;20029;-70
2021/03/15 01:34:18;;;;;;;3.97;2.67;;;;;;;18.42;51.31;100677.75;2091878;28;20047;-71
2021/03/15 01:35:18;;;;;;;3.00;2.27;;;;;;;18.43;51.17;100673.16;2092145;28;20483;-70
2021/03/15 01:36:19;;;;;;;5.03;2.57;;;;;;;18.43;51.35;100678.59;2086633;28;20395;-70
2021/03/15 01:37:19;;;;;;;3.87;2.10;;;;;;;18.43;51.31;100674.00;2086463;28;20564;-70
2021/03/15 01:38:21;;;;;;;4.30;2.83;;;;;;;18.45;51.31;100681.19;2089622;28;20021;-70
2021/03/15 01:39:21;;;;;;;8.68;3.60;;;;;;;18.45;51.33;100684.81;2095353;28;20412;-70
2021/03/15 01:40:23;;;;;;;3.73;2.40;;;;;;;18.46;51.52;100682.94;2090611;28;20138;-70
2021/03/15 01:41:23;;;;;;;3.78;2.75;;;;;;;18.45;51.30;100684.81;2093690;28;20619;-70
2021/03/15 01:42:24;;;;;;;3.27;2.40;;;;;;;18.45;51.23;100673.00;2095314;28;20712;-71
2021/03/15 01:43:25;;;;;;;4.00;1.80;;;;;;;18.45;51.36;100671.16;2094749;28;20036;-70
2021/03/15 01:44:25;;;;;;;3.57;2.73;;;;;;;18.45;51.37;100670.28;2092078;28;20108;-70
2021/03/15 01:45:26;;;;;;;2.67;2.17;;;;;;;18.44;51.36;100669.41;2093720;28;20024;-70
2021/03/15 01:46:26;;;;;;;3.70;2.53;;;;;;;18.43;51.23;100676.75;2093426;28;20544;-69
2021/03/15 01:47:27;;;;;;;5.53;2.77;;;;;;;18.43;51.06;100671.28;2095394;28;20169;-70
2021/03/15 01:48:27;;;;;;;5.07;2.77;;;;;;;18.43;51.11;100667.69;2089234;28;20024;-70
2021/03/15 01:49:28;;;;;;;4.67;2.50;;;;;;;18.44;51.12;100669.41;2091553;28;20040;-70
2021/03/15 01:50:28;;;;;;;4.17;2.50;;;;;;;18.43;51.06;100668.56;2094339;28;20063;-70
2021/03/15 01:51:29;;;;;;;3.10;2.40;;;;;;;18.42;51.12;100666.84;2093721;28;20593;-70
2021/03/15 01:52:29;;;;;;;3.53;2.20;;;;;;;18.44;50.98;100669.41;2087335;28;20507;-70
2021/03/15 01:53:30;;;;;;;4.50;2.40;;;;;;;18.43;50.83;100665.81;2095395;28;20029;-70
2021/03/15 01:54:30;;;;;;;3.17;2.23;;;;;;;18.43;51.14;100668.56;2092257;28;20040;-70
2021/03/15 01:55:33;;;;;;;3.43;2.20;;;;;;;18.42;50.91;100658.66;2095265;28;20032;-70
2021/03/15 01:56:35;;;;;;;3.83;2.15;;;;;;;18.42;51.05;100661.38;2094804;28;20096;-70
2021/03/15 01:57:37;;;;;;;3.15;2.17;;;;;;;18.42;51.05;100664.09;2094212;28;20052;-70
2021/03/15 01:58:38;;;;;;;2.95;2.20;;;;;;;18.43;50.97;100659.50;2086922;28;20029;-70
2021/03/15 01:59:38;;;;;;;3.63;2.00;;;;;;;18.43;51.07;100667.69;2089874;28;20032;-70
2021/03/15 02:00:39;;;;;;;3.30;2.47;;;;;;;18.42;51.04;100663.22;2095367;28;20024;-70
2021/03/15 02:01:40;;;;;;;4.30;2.40;;;;;;;18.42;51.03;100661.38;2093674;28;20073;-70
2021/03/15 02:03:05;;;;;;;4.82;2.25;;;;;;;18.41;51.04;100659.63;2093875;28;20096;-70
2021/03/15 02:04:05;;;;;;;4.32;2.65;;;;;;;18.42;50.94;100660.47;2090356;28;20506;-70
2021/03/15 02:05:07;;;;;;;4.00;2.30;;;;;;;18.42;50.98;100664.09;2090559;28;20352;-70
2021/03/15 02:06:07;;;;;;;3.38;2.50;;;;;;;18.42;50.97;100657.75;2093770;28;20028;-70
2021/03/15 02:07:08;;;;;;;3.77;2.40;;;;;;;18.41;51.20;100662.34;2086917;28;20033;-70
2021/03/15 02:08:08;;;;;;;2.93;2.10;;;;;;;18.41;51.09;100665.09;2092180;28;20112;-70
2021/03/15 02:09:09;;;;;;;3.77;2.17;;;;;;;18.41;51.07;100665.09;2094849;28;20032;-70
2021/03/15 02:10:10;;;;;;;4.10;2.40;;;;;;;18.41;51.17;100658.75;2088804;28;20052;-70
2021/03/15 02:11:33;;;;;;;3.65;2.70;;;;;;;18.41;50.99;100658.75;2089147;28;20024;-70
2021/03/15 02:13:04;;;;;;;3.70;2.17;;;;;;;18.40;50.98;100663.38;2094396;28;20032;-70
2021/03/15 02:14:23;;;;;;;3.47;2.22;;;;;;;18.39;51.00;100656.16;2086815;28;20040;-71
2021/03/15 02:15:57;;;;;;;3.92;2.35;;;;;;;18.39;50.94;100647.97;2085387;28;20202;-70
2021/03/15 02:17:00;;;;;;;3.35;2.47;;;;;;;18.39;51.17;100650.69;2084508;28;20032;-69
2021/03/15 02:18:11;;;;;;;4.07;2.38;;;;;;;18.38;50.97;100643.53;2086711;28;20094;-70
2021/03/15 02:19:20;;;;;;;3.25;2.00;;;;;;;18.37;51.10;100641.81;2077916;28;20686;-70
2021/03/15 02:20:48;;;;;;;5.03;2.20;;;;;;;18.38;51.09;100640.78;2083557;28;20488;-70
2021/03/15 02:22:11;;;;;;;3.55;2.17;;;;;;;18.37;51.01;100639.06;2094550;28;20322;-69
2021/03/15 02:23:23;;;;;;;3.65;2.25;;;;;;;18.37;51.07;100643.63;2093316;28;20041;-70
2021/03/15 02:25:02;;;;;;;3.45;2.08;;;;;;;18.36;51.08;100633.72;2091983;28;20090;-70
2021/03/15 02:26:24;;;;;;;3.45;2.03;;;;;;;18.36;51.19;100634.59;2090451;28;20554;-70
2021/03/15 02:27:51;;;;;;;3.53;1.80;;;;;;;18.35;51.12;100632.88;2089918;28;20028;-69
2021/03/15 02:29:12;;;;;;;3.80;2.30;;;;;;;18.35;51.03;100630.13;2092621;28;20744;-69
2021/03/15 02:30:34;;;;;;;4.40;1.95;;;;;;;18.35;51.06;100627.41;2094278;28;20427;-70
2021/03/15 02:31:53;;;;;;;3.10;1.95;;;;;;;18.34;51.19;100631.13;2094208;28;20534;-69
2021/03/15 02:33:16;;;;;;;2.88;1.88;;;;;;;18.34;51.29;100631.13;2092339;28;20041;-70
2021/03/15 02:34:36;;;;;;;3.40;2.42;;;;;;;18.34;51.06;100631.13;2060706;28;20580;-69
2021/03/15 02:35:39;;;;;;;4.18;1.83;;;;;;;18.34;51.18;100631.13;2094365;28;20734;-69
2021/03/15 02:36:42;;;;;;;3.17;2.03;;;;;;;18.34;51.11;100635.72;2093114;28;20579;-69
2021/03/15 02:37:51;;;;;;;2.58;1.95;;;;;;;18.34;51.08;100631.13;2094785;28;20431;-69
2021/03/15 02:38:52;;;;;;;4.20;2.45;;;;;;;18.33;51.24;100632.13;2092817;28;20388;-70
2021/03/15 02:39:56;;;;;;;3.33;1.83;;;;;;;18.34;51.10;100631.13;2093399;28;20110;-69
2021/03/15 02:41:00;;;;;;;3.70;2.15;;;;;;;18.34;51.05;100636.59;2094696;28;20062;-69
2021/03/15 02:42:05;;;;;;;3.70;2.53;;;;;;;18.35;51.38;100629.28;2094737;28;20090;-70
2021/03/15 02:43:15;;;;;;;3.53;2.13;;;;;;;18.35;51.21;100632.88;2090700;28;20488;-70
2021/03/15 02:44:16;;;;;;;3.22;2.03;;;;;;;18.34;51.31;100631.13;2092477;28;20049;-69
2021/03/15 02:45:18;;;;;;;3.78;2.38;;;;;;;18.35;51.26;100627.41;2094435;28;20801;-70
2021/03/15 02:46:22;;;;;;;4.45;2.50;;;;;;;18.36;51.44;100628.28;2094323;28;20048;-69
2021/03/15 02:47:28;;;;;;;3.63;2.30;;;;;;;18.35;51.33;100624.69;2094231;28;20090;-69
2021/03/15 02:48:31;;;;;;;3.35;2.10;;;;;;;18.36;51.22;100625.53;2092070;28;20134;-69
2021/03/15 02:49:35;;;;;;;2.80;2.00;;;;;;;18.36;51.47;100623.66;2093904;28;20107;-69
2021/03/15 02:50:44;;;;;;;4.15;2.50;;;;;;;18.37;51.34;100619.97;2085941;28;20025;-69
2021/03/15 02:51:48;;;;;;;3.25;2.05;;;;;;;18.35;51.29;100624.69;2084080;28;20820;-70
2021/03/15 02:52:51;;;;;;;3.15;2.05;;;;;;;18.35;51.28;100619.22;2093913;28;20025;-69
2021/03/15 02:53:54;;;;;;;4.18;2.55;;;;;;;18.36;51.11;100623.66;2094725;28;20024;-69
2021/03/15 02:54:55;;;;;;;2.65;1.60;;;;;;;18.36;51.34;100617.34;2092099;28;20037;-70
2021/03/15 02:56:03;;;;;;;4.15;2.00;;;;;;;18.35;51.33;100610.19;2094281;28;20059;-70
2021/03/15 02:57:06;;;;;;;3.17;2.05;;;;;;;18.35;51.31;100611.03;2101162;28;20803;-70
2021/03/15 02:58:07;;;;;;;4.88;2.47;;;;;;;18.35;51.26;100611.03;2097326;28;20076;-70
2021/03/15 02:59:09;;;;;;;3.63;2.10;;;;;;;18.36;51.22;100612.75;2096412;28;20100;-69
2021/03/15 03:00:11;;;;;;;4.47;2.15;;;;;;;18.34;51.13;100609.28;2095974;28;20036;-70
2021/03/15 03:01:16;;;;;;;3.15;2.15;;;;;;;18.35;51.28;100611.03;2093076;28;20040;-70
2021/03/15 03:02:16;;;;;;;3.28;2.30;;;;;;;18.36;51.21;100617.34;2096387;28;20465;-70
2021/03/15 03:03:22;;;;;;;2.30;1.80;;;;;;;18.34;51.35;100612.00;2096029;28;20410;-70
2021/03/15 03:04:25;;;;;;;3.00;1.83;;;;;;;18.35;51.17;100604.72;2101596;28;20755;-70
2021/03/15 03:05:26;;;;;;;4.38;2.35;;;;;;;18.35;51.18;100611.03;2085113;28;20039;-70
2021/03/15 03:06:30;;;;;;;2.93;1.93;;;;;;;18.34;51.12;100606.56;2081004;28;21195;-69
2021/03/15 03:07:31;;;;;;;3.08;2.08;;;;;;;18.35;51.16;100610.19;2087982;28;20029;-70
2021/03/15 03:08:34;;;;;;;3.90;2.20;;;;;;;18.35;51.13;100613.75;2094509;28;20107;-70
2021/03/15 03:09:36;;;;;;;3.83;2.33;;;;;;;18.35;51.11;100612.91;2086218;28;20078;-69
2021/03/15 03:10:37;;;;;;;3.53;2.08;;;;;;;18.35;50.94;100612.91;2087524;28;20395;-70
2021/03/15 03:11:39;;;;;;;2.75;1.90;;;;;;;18.35;51.01;100616.50;2094381;28;20119;-70
2021/03/15 03:12:39;;;;;;;;;;;;;;;18.34;51.02;100620.19;2096994;28;20036;-70
2021/03/15 03:13:43;;;;;;;3.42;1.80;;;;;;;18.34;51.28;100614.75;2094645;28;20433;-69
2021/03/15 03:14:46;;;;;;;4.30;2.53;;;;;;;18.33;51.04;100613.03;2095282;28;20029;-69
2021/03/15 03:15:48;;;;;;;3.97;2.22;;;;;;;18.34;51.06;100603.81;2096421;28;20052;-69
2021/03/15 03:16:51;;;;;;;3.88;2.45;;;;;;;18.33;51.02;100602.09;2095617;28;20494;-70
2021/03/15 03:17:54;;;;;;;3.17;2.20;;;;;;;18.33;51.06;100599.38;2094433;28;20544;-70
2021/03/15 03:18:56;;;;;;;3.65;2.30;;;;;;;18.34;51.22;100602.97;2096440;28;20126;-69
2021/03/15 03:19:57;;;;;;;3.03;1.80;;;;;;;18.33;51.12;100599.38;2088019;28;20118;-70
2021/03/15 03:20:59;;;;;;;3.38;2.13;;;;;;;18.34;51.11;100602.97;2078635;28;20040;-69
2021/03/15 03:22:01;;;;;;;4.88;2.00;;;;;;;18.32;51.13;100600.34;2087165;28;20770;-69
2021/03/15 03:23:05;;;;;;;3.15;2.13;;;;;;;18.32;51.21;100603.09;2088727;28;20083;-69
2021/03/15 03:24:07;;;;;;;5.20;2.25;;;;;;;18.33;51.03;100602.09;2096456;28;20032;-69
2021/03/15 03:25:11;;;;;;;2.80;2.05;;;;;;;18.32;51.20;100605.81;2095015;28;20025;-69
2021/03/15 03:26:11;;;;;;;4.50;2.50;;;;;;;18.32;51.15;100600.34;2094187;28;20043;-69
2021/03/15 03:27:14;;;;;;;2.47;2.00;;;;;;;18.32;51.29;100596.78;2088422;28;20484;-69
2021/03/15 03:28:15;;;;;;;3.35;1.92;;;;;;;18.32;51.16;100600.34;2094528;28;20520;-69
2021/03/15 03:29:17;;;;;;;3.95;2.67;;;;;;;18.31;51.25;100598.66;2095911;28;20636;-70
2021/03/15 03:30:18;;;;;;;3.55;1.90;;;;;;;18.31;51.16;100590.47;2095835;28;20024;-69
2021/03/15 03:31:20;;;;;;;3.63;2.00;;;;;;;18.31;51.10;100595.91;2096319;28;20028;-69
2021/03/15 03:32:21;;;;;;;3.38;1.92;;;;;;;18.31;51.30;100595.06;2093454;28;20031;-69
2021/03/15 03:33:21;;;;;;;3.27;1.93;;;;;;;18.30;51.12;100588.75;2096329;28;20040;-69
2021/03/15 03:34:22;;;;;;;3.00;2.07;;;;;;;18.29;51.31;100589.72;2092732;28;20031;-69
2021/03/15 03:35:22;;;;;;;2.73;1.90;;;;;;;18.30;51.13;100591.47;2093282;28;20486;-69
2021/03/15 03:36:23;;;;;;;4.30;2.13;;;;;;;18.30;51.30;100586.00;2095750;28;20680;-69
2021/03/15 03:37:23;;;;;;;2.93;1.97;;;;;;;18.29;51.12;100588.84;2095140;28;20696;-70
2021/03/15 03:38:23;;;;;;;3.93;2.17;;;;;;;18.28;51.15;100590.72;2094897;28;20048;-69
2021/03/15 03:39:24;;;;;;;2.93;1.70;;;;;;;18.29;51.30;100595.19;2089461;28;20016;-69
2021/03/15 03:40:25;;;;;;;2.80;2.07;;;;;;;18.29;51.39;100599.78;2096107;28;20039;-69
2021/03/15 03:41:25;;;;;;;4.43;2.27;;;;;;;18.28;51.18;100582.53;2096173;28;20025;-69
2021/03/15 03:42:26;;;;;;;3.37;1.90;;;;;;;18.28;51.35;100587.13;2095493;28;20020;-69
2021/03/15 03:43:26;;;;;;;3.37;2.10;;;;;;;18.28;51.18;100588.00;2095288;28;20071;-69
2021/03/15 03:44:27;;;;;;;2.57;1.90;;;;;;;18.28;51.27;100592.59;2093900;28;20081;-69
2021/03/15 03:45:27;;;;;;;3.63;2.60;;;;;;;18.28;51.27;100593.47;2095714;28;20149;-69
2021/03/15 03:46:27;;;;;;;4.40;2.27;;;;;;;18.29;51.44;100591.59;2098924;28;20040;-69
2021/03/15 03:47:28;;;;;;;2.83;2.10;;;;;;;18.28;51.56;100596.19;2095139;28;20024;-69
2021/03/15 03:48:29;;;;;;;2.60;1.83;;;;;;;18.29;51.53;100595.19;2096115;28;20518;-69
2021/03/15 03:49:30;;;;;;;2.67;2.08;;;;;;;18.31;51.48;100600.50;2095750;28;20016;-69
2021/03/15 03:50:33;;;;;;;2.77;2.20;;;;;;;18.29;51.42;100603.38;2093546;28;20484;-69
2021/03/15 03:51:53;;;;;;;4.45;2.22;;;;;;;18.31;51.68;100603.25;2087751;28;20017;-68
2021/03/15 03:52:58;;;;;;;2.90;1.70;;;;;;;18.31;51.38;100609.56;2087714;28;20036;-69
2021/03/15 03:54:02;;;;;;;2.40;1.60;;;;;;;18.33;51.31;100606.72;2096209;28;20032;-69
2021/03/15 03:55:08;;;;;;;3.30;1.80;;;;;;;18.32;51.48;100613.16;2095464;28;20032;-69
2021/03/15 03:56:17;;;;;;;3.75;1.83;;;;;;;18.32;51.31;100605.81;2094982;28;20029;-69
2021/03/15 03:57:30;;;;;;;3.20;1.90;;;;;;;18.31;51.38;100601.38;2096160;28;20179;-69
2021/03/15 03:58:34;;;;;;;2.25;1.55;;;;;;;18.32;51.44;100603.09;2093178;28;20095;-69
2021/03/15 03:59:37;;;;;;;2.70;1.80;;;;;;;18.31;51.48;100600.50;2096015;28;20097;-68
2021/03/15 04:00:38;;;;;;;3.97;2.25;;;;;;;18.31;51.31;100604.09;2094032;28;20109;-69
2021/03/15 04:01:42;;;;;;;2.63;1.98;;;;;;;18.30;51.42;100607.84;2092542;28;20478;-69
2021/03/15 04:02:59;;;;;;;2.28;1.80;;;;;;;18.31;51.24;100603.25;2095852;28;20066;-69
2021/03/15 04:04:01;;;;;;;3.08;2.33;;;;;;;18.30;51.43;100605.13;2093086;28;20017;-69
2021/03/15 04:05:08;;;;;;;2.75;2.30;;;;;;;18.29;51.40;100595.19;2100541;28;20081;-68
2021/03/15 04:06:11;;;;;;;2.78;1.77;;;;;;;18.30;51.50;100596.94;2092072;28;20029;-69
2021/03/15 04:07:12;;;;;;;2.78;1.73;;;;;;;18.28;51.31;100593.47;2095284;28;20561;-69
2021/03/15 04:08:15;;;;;;;3.58;2.10;;;;;;;18.29;51.26;100603.38;2095033;28;20029;-68
2021/03/15 04:09:18;;;;;;;2.80;1.70;;;;;;;18.29;51.39;100595.19;2095871;28;20027;-69
2021/03/15 04:10:19;;;;;;;2.97;1.90;;;;;;;18.29;51.26;100594.31;2091888;28;20246;-68
2021/03/15 04:11:22;;;;;;;2.93;2.03;;;;;;;18.29;51.36;100602.50;2094931;28;20072;-69
2021/03/15 04:12:24;;;;;;;3.05;1.95;;;;;;;18.29;51.42;100597.03;2095214;28;20020;-69
2021/03/15 04:13:28;;;;;;;5.13;2.13;;;;;;;18.29;51.25;100600.63;2094839;28;20093;-69
2021/03/15 04:14:36;;;;;;;2.75;1.90;;;;;;;18.29;51.30;100597.91;2095546;28;20020;-68
2021/03/15 04:15:43;;;;;;;3.90;2.03;;;;;;;18.29;51.18;100594.31;2094030;28;20728;-68
2021/03/15 04:16:45;;;;;;;3.70;2.22;;;;;;;18.29;51.18;100594.31;2095020;28;20079;-69
2021/03/15 04:17:47;;;;;;;3.33;1.90;;;;;;;18.27;51.23;100591.72;2093900;28;20187;-69
2021/03/15 04:18:51;;;;;;;3.97;2.10;;;;;;;18.28;51.27;100598.06;2094558;28;20143;-69
2021/03/15 04:20:04;;;;;;;4.25;1.90;;;;;;;18.27;51.15;100597.16;2095693;28;20044;-69
2021/03/15 04:21:07;;;;;;;3.00;1.80;;;;;;;18.27;51.33;100597.16;2090704;28;20103;-69
2021/03/15 04:22:11;;;;;;;3.10;1.50;;;;;;;18.28;51.17;100598.91;2091574;28;20020;-68
2021/03/15 04:23:18;;;;;;;2.65;1.90;;;;;;;18.27;51.11;100597.16;2094568;28;20038;-70
2021/03/15 04:24:20;;;;;;;4.45;2.08;;;;;;;18.28;51.10;100598.06;2093927;28;20834;-69
2021/03/15 04:25:24;;;;;;;2.40;1.63;;;;;;;18.27;51.23;100597.16;2094037;28;20513;-69
2021/03/15 04:26:26;;;;;;;3.25;2.00;;;;;;;18.26;51.17;100590.00;2088221;28;20067;-69
2021/03/15 04:27:29;;;;;;;3.58;1.40;;;;;;;18.27;51.37;100586.25;2077244;28;20188;-69
2021/03/15 04:28:32;;;;;;;3.17;1.88;;;;;;;18.26;51.33;100570.88;2078238;28;20037;-70
2021/03/15 04:29:33;;;;;;;2.78;1.88;;;;;;;18.26;51.39;100587.25;2087602;28;20029;-69
2021/03/15 04:30:35;;;;;;;3.38;1.90;;;;;;;18.26;51.27;100586.41;2088346;28;20055;-69
2021/03/15 04:31:36;;;;;;;4.47;1.80;;;;;;;18.26;51.21;100579.06;2095987;28;20028;-69
2021/03/15 04:32:38;;;;;;;8.07;2.07;;;;;;;18.26;51.37;100589.13;2095237;28;20044;-69
2021/03/15 04:33:40;;;;;;;2.97;1.80;;;;;;;18.26;51.23;100589.13;2094807;28;20068;-69
2021/03/15 04:34:42;;;;;;;2.78;2.00;;;;;;;18.26;51.22;100590.00;2095237;28;20035;-69
2021/03/15 04:35:43;;;;;;;4.60;2.35;;;;;;;18.25;51.43;100599.19;2091306;28;20128;-69
2021/03/15 04:36:45;;;;;;;2.58;1.80;;;;;;;18.25;51.30;100607.38;2097481;28;20027;-69
2021/03/15 04:37:48;;;;;;;2.75;2.05;;;;;;;18.25;51.44;100604.66;2093772;28;20569;-69
2021/03/15 04:38:50;;;;;;;3.15;2.17;;;;;;;18.25;51.25;100601.91;2092456;28;20035;-69
2021/03/15 04:39:51;;;;;;;2.47;1.75;;;;;;;18.25;51.42;100593.72;2094773;28;20028;-69
2021/03/15 04:40:52;;;;;;;2.87;1.87;;;;;;;18.25;51.25;100603.75;2095641;28;20032;-69
2021/03/15 04:41:53;;;;;;;2.67;1.60;;;;;;;18.24;51.23;100600.16;2095692;28;20103;-69
2021/03/15 04:43:01;;;;;;;3.37;2.23;;;;;;;18.23;51.46;100601.19;2092803;28;20029;-69
2021/03/15 04:44:02;;;;;;;3.20;2.17;;;;;;;18.25;51.22;100603.75;2095110;28;20036;-69
2021/03/15 04:45:03;;;;;;;5.28;2.40;;;;;;;18.23;51.46;100606.63;2095889;28;20024;-69
2021/03/15 04:46:07;;;;;;;4.43;2.07;;;;;;;18.24;51.47;100608.34;2092157;28;20041;-69
2021/03/15 04:47:08;;;;;;;4.13;2.15;;;;;;;18.22;51.23;100610.34;2095300;28;20039;-69
2021/03/15 04:48:12;;;;;;;3.03;1.90;;;;;;;18.24;51.30;100618.41;2086547;28;20552;-69
2021/03/15 04:49:13;;;;;;;3.42;2.15;;;;;;;18.23;51.45;100623.00;2086254;28;20070;-69
2021/03/15 04:50:15;;;;;;;4.47;2.35;;;;;;;18.23;51.25;100617.56;2078502;28;20037;-69
2021/03/15 04:51:17;;;;;;;;;;;;;;;18.24;51.27;100623.88;2085875;28;20040;-69
2021/03/15 04:52:17;;;;;;;2.85;2.13;;;;;;;18.24;51.30;100630.19;2094980;28;19913;-69
2021/03/15 04:53:19;;;;;;;3.23;1.87;;;;;;;18.23;51.58;100617.56;2088104;28;20708;-69
2021/03/15 04:54:20;;;;;;;2.92;1.85;;;;;;;18.23;51.52;100617.56;2089608;28;20128;-69
2021/03/15 04:55:21;;;;;;;5.10;2.00;;;;;;;18.24;51.44;100619.28;2087538;28;20056;-69